DeLand, FL

5:07 PM EDT on October 23, 2014 (GMT -0400)
Glenwood Hammock | Change Station
CLOSE
Current Station
Personal Weather Station
Location: DeLand, FL
Elevation: 33 m
Nearby Weather Stations

Elev 33 m 29.06 °N, 81.36 °W | Updated 54 seconds ago

Clear
Clear
24.5 °C
Feels Like 26 °C
N
1.6
Wind Variable Wind from ENE
Gusts 4.8 km/h

Today
High -- | Low -- °C
--% Chance of Precip.
Yesterday
High -- | Low -- °C
Precip. -- mm
7:31 AM 6:47 PM
Waning Crescent, 0% visible
Pressure 1015 hPa
Visibility 16.1 kilometers
Clouds Few 1493 m
Heat Index 26 °C
Dew Point 15 °C
Humidity 55%
Rainfall 0 mm
Snow Depth Not available.
UV 2 out of 12
Pollen 5.80 out of 12
Air Quality Not available.
Flu Activity Local Activity
METAR KDED 232055Z AUTO 06006KT 10SM FEW049 24/12 A2997 RMK AO1

More Conditions Fewer Conditions

Pressure 1015 hPa
Visibility 16.1 kilometers
Clouds Few 1493 m
Heat Index 26 °C
Dew Point 15 °C
Humidity 55%
Rainfall 0 mm
Snow Depth Not available.
UV 2 out of 12
Pollen 5.80 out of 12
Air Quality Not available.
Flu Activity Local Activity
METAR KDED 232055Z AUTO 06006KT 10SM FEW049 24/12 A2997 RMK AO1

More Conditions Fewer Conditions

10-Day Weather Forecast

Almanac

Astronomy

Oct. 23, 2014 Rise Set
Actual Time 7:31 AM EDT 6:47 PM EDT
Civil Twilight 7:07 AM EDT 7:11 PM EDT
Nautical Twilight 6:39 AM EDT 7:39 PM EDT
Astronomical Twilight 6:12 AM EDT 8:06 PM EDT
Moon 7:11 AM EDT 6:48 PM EDT
Length of Visible Light 12h 03m
Length of Day
11h 15m
Tomorrow will be 1m 37s shorter.
Waning Crescent, 0% of the Moon is Illuminated
Today
Waning Crescent
Oct 23
New
Oct 30
First Quarter
Nov 6
Full
Nov 14
Last Quarter

Today's Extremes

State Highs State Lows

Community

WunderPhotos

Upload Photos

1,764,371 photos uploaded!

WunderBlogs® & News

By Dr. Jeff Masters
Director of Meteorology, Weather Underground
By Kari Strenfel
Meteorologist, Weather Underground
By Christopher C. Burt
Weather Historian, Weather Underground
October 23, 2014
October 23, 2014
October 23, 2014

Nearby

Snow Depth

Station Depth Elevation
No new snow has been reported.

Earthquake Activity

City Distance Mag. Time & Date
No recent earthquake activity has been reported nearby.
Minimum magnitude displayed is 2.5.

Coastal Water Temperatures

Place Temperature
Trident Pier, FL 26.7 °C
Mayport (Bar Pilots Dock), FL 24.4 °C
Fernandina Beach, FL 22.8 °C
McKay Bay Entrance, FL 26.7 °C

Nearby Weather Stations